createdAt,value
2023-05-06T00:01:25.335Z,16.53
2023-05-06T00:03:52.097Z,16.92
2023-05-06T00:08:46.025Z,16.05
2023-05-06T00:11:13.694Z,15.38
2023-05-06T00:13:40.628Z,16.13
2023-05-06T00:16:07.309Z,16.30
2023-05-06T00:18:34.004Z,18.00
2023-05-06T00:21:00.424Z,15.15
2023-05-06T00:23:26.889Z,18.17
2023-05-06T00:25:54.245Z,17.60
2023-05-06T00:28:20.851Z,17.08
2023-05-06T00:30:47.294Z,17.23
2023-05-06T00:33:13.838Z,16.80
2023-05-06T00:35:40.256Z,18.55
2023-05-06T00:38:12.807Z,17.70
2023-05-06T00:40:40.080Z,18.25
2023-05-06T00:43:07.043Z,16.33
2023-05-06T00:45:33.635Z,18.13
2023-05-06T00:48:00.798Z,17.90
2023-05-06T00:50:31.215Z,16.90
2023-05-06T00:52:58.773Z,17.50
2023-05-06T00:55:26.166Z,16.80
2023-05-06T00:57:52.989Z,18.15
2023-05-06T01:00:20.485Z,16.33
2023-05-06T01:02:48.402Z,18.10
2023-05-06T01:05:21.032Z,17.25
2023-05-06T01:08:13.214Z,16.80
2023-05-06T01:10:52.432Z,17.48
2023-05-06T01:13:37.820Z,17.65
2023-05-06T01:16:07.298Z,16.80
2023-05-06T01:18:34.469Z,17.45
2023-05-06T01:21:01.891Z,17.10
2023-05-06T01:23:28.292Z,16.75
2023-05-06T01:25:54.701Z,19.85
2023-05-06T01:28:21.133Z,15.97
2023-05-06T01:30:59.498Z,16.40
2023-05-06T01:33:50.878Z,18.23
2023-05-06T01:36:29.044Z,18.10
2023-05-06T01:39:29.006Z,17.65
2023-05-06T01:41:57.568Z,17.77
2023-05-06T01:44:27.647Z,17.95
2023-05-06T01:46:55.084Z,17.13
2023-05-06T01:49:24.833Z,17.00
2023-05-06T01:51:52.046Z,17.55
2023-05-06T01:54:18.736Z,17.70
2023-05-06T01:56:45.295Z,19.00
2023-05-06T01:59:11.730Z,18.42
2023-05-06T02:01:38.219Z,18.23
2023-05-06T02:04:04.948Z,19.48
2023-05-06T02:06:32.578Z,20.33
2023-05-06T02:08:58.984Z,19.45
2023-05-06T02:11:25.754Z,19.17
2023-05-06T02:13:52.491Z,20.33
2023-05-06T02:16:18.990Z,18.42
2023-05-06T02:18:45.846Z,19.23
2023-05-06T02:21:12.314Z,21.30
2023-05-06T02:23:38.756Z,21.63
2023-05-06T02:26:05.279Z,19.27
2023-05-06T02:28:31.711Z,20.40
2023-05-06T02:30:58.671Z,23.40
2023-05-06T02:33:25.099Z,21.60
2023-05-06T02:35:51.695Z,22.23
2023-05-06T02:38:19.627Z,19.67
2023-05-06T02:40:46.075Z,24.60
2023-05-06T02:43:12.557Z,20.90
2023-05-06T02:45:39.256Z,20.05
2023-05-06T02:48:06.221Z,20.08
2023-05-06T02:50:32.723Z,20.75
2023-05-06T02:52:59.121Z,20.95
2023-05-06T02:55:25.761Z,22.83
2023-05-06T02:57:52.245Z,22.48
2023-05-06T03:00:18.920Z,22.08
2023-05-06T03:02:45.961Z,23.38
2023-05-06T03:05:12.582Z,23.73
2023-05-06T03:07:38.985Z,23.27
2023-05-06T03:10:05.929Z,22.63
2023-05-06T03:12:32.362Z,22.40
2023-05-06T03:14:58.772Z,25.25
2023-05-06T03:17:25.313Z,22.85
2023-05-06T03:19:52.036Z,24.27
2023-05-06T03:22:18.442Z,21.92
2023-05-06T03:24:44.930Z,24.05
2023-05-06T03:27:11.428Z,23.63
2023-05-06T03:29:37.895Z,24.10
2023-05-06T03:32:05.373Z,22.87
2023-05-06T03:34:31.877Z,23.63
2023-05-06T03:36:58.870Z,23.58
2023-05-06T03:39:25.343Z,23.08
2023-05-06T03:41:51.787Z,22.75
2023-05-06T03:44:18.213Z,21.97
2023-05-06T03:46:44.765Z,25.60
2023-05-06T03:49:11.241Z,25.60
2023-05-06T03:51:37.677Z,25.98
2023-05-06T03:54:04.688Z,24.90
2023-05-06T03:56:31.085Z,24.47
2023-05-06T03:58:57.558Z,26.48
2023-05-06T04:01:23.947Z,24.52
2023-05-06T04:03:52.001Z,24.83
2023-05-06T04:06:18.485Z,25.17
2023-05-06T04:08:44.876Z,24.70
2023-05-06T04:11:11.714Z,23.10
2023-05-06T04:13:38.102Z,24.10
2023-05-06T04:16:05.399Z,27.67
2023-05-06T04:18:32.885Z,26.63
2023-05-06T04:21:00.200Z,26.63
2023-05-06T04:23:26.682Z,27.13
2023-05-06T04:25:53.102Z,26.48
2023-05-06T04:28:19.535Z,29.60
2023-05-06T04:30:46.472Z,27.83
2023-05-06T04:33:13.113Z,25.00
2023-05-06T04:35:40.161Z,26.58
2023-05-06T04:38:06.710Z,29.73
2023-05-06T04:40:36.516Z,28.15
2023-05-06T04:43:03.009Z,28.95
2023-05-06T04:45:29.892Z,29.90
2023-05-06T04:47:56.427Z,27.50
2023-05-06T04:50:22.877Z,27.25
2023-05-06T04:52:49.286Z,32.33
2023-05-06T04:55:15.722Z,29.92
2023-05-06T04:57:42.139Z,27.97
2023-05-06T05:00:10.409Z,33.30
2023-05-06T05:02:37.267Z,35.13
2023-05-06T05:05:03.911Z,33.58
2023-05-06T05:07:30.461Z,31.58
2023-05-06T05:09:57.023Z,32.13
2023-05-06T05:12:23.475Z,34.00
2023-05-06T05:14:49.904Z,33.58
2023-05-06T05:17:16.546Z,34.15
2023-05-06T05:19:43.130Z,34.65
2023-05-06T05:22:09.582Z,32.00
2023-05-06T05:24:35.992Z,31.23
2023-05-06T05:27:02.637Z,31.60
2023-05-06T05:29:29.115Z,34.00
2023-05-06T05:31:55.588Z,32.90
2023-05-06T05:34:22.047Z,33.13
2023-05-06T05:36:48.466Z,31.67
2023-05-06T05:39:14.923Z,31.95
2023-05-06T05:41:41.408Z,32.17
2023-05-06T05:44:07.805Z,32.53
2023-05-06T05:46:34.362Z,32.87
2023-05-06T05:49:01.147Z,34.50
2023-05-06T05:51:27.587Z,32.22
2023-05-06T05:53:54.015Z,32.38
2023-05-06T05:56:20.704Z,32.38
2023-05-06T05:58:47.475Z,31.70
2023-05-06T06:01:14.630Z,31.25
2023-05-06T06:03:41.835Z,30.42
2023-05-06T06:06:09.422Z,31.02
2023-05-06T06:08:36.420Z,36.38
2023-05-06T06:11:04.462Z,32.17
2023-05-06T06:13:31.426Z,29.60
2023-05-06T06:15:58.242Z,31.30
2023-05-06T06:18:24.907Z,28.77
2023-05-06T06:20:53.137Z,30.85
2023-05-06T06:23:20.916Z,31.03
2023-05-06T06:25:47.420Z,28.20
2023-05-06T06:28:13.897Z,28.80
2023-05-06T06:30:40.888Z,32.38
2023-05-06T06:33:07.463Z,30.40
2023-05-06T06:35:34.786Z,30.47
2023-05-06T06:38:01.601Z,32.25
2023-05-06T06:40:28.065Z,33.63
2023-05-06T06:42:54.590Z,30.58
2023-05-06T06:45:21.254Z,31.42
2023-05-06T06:47:47.706Z,33.17
2023-05-06T06:50:14.203Z,31.17
2023-05-06T06:52:40.674Z,31.05
2023-05-06T06:55:07.879Z,30.83
2023-05-06T06:57:34.423Z,29.98
2023-05-06T07:00:00.878Z,30.33
2023-05-06T07:02:27.361Z,30.88
2023-05-06T07:04:54.057Z,32.40
2023-05-06T07:07:20.733Z,30.83
2023-05-06T07:09:47.196Z,31.42
2023-05-06T07:12:13.703Z,30.63
2023-05-06T07:14:40.260Z,30.42
2023-05-06T07:17:06.690Z,33.53
2023-05-06T07:19:33.184Z,33.90
2023-05-06T07:22:00.548Z,33.90
2023-05-06T07:24:27.054Z,32.37
2023-05-06T07:26:53.472Z,32.13
2023-05-06T07:29:19.908Z,33.70
2023-05-06T07:31:46.318Z,34.35
2023-05-06T07:42:13.182Z,32.67
2023-05-06T07:44:39.922Z,37.47
2023-05-06T07:47:06.862Z,33.90
2023-05-06T07:49:34.989Z,35.58
2023-05-06T07:52:02.037Z,35.63
2023-05-06T07:54:28.864Z,33.35
2023-05-06T07:56:55.689Z,33.58
2023-05-06T07:59:22.380Z,34.65
2023-05-06T08:01:48.830Z,34.33
2023-05-06T08:04:15.289Z,34.90
2023-05-06T08:06:41.796Z,33.88
2023-05-06T08:09:08.197Z,35.70
2023-05-06T08:11:34.613Z,37.50
2023-05-06T08:14:01.012Z,41.25
2023-05-06T08:16:27.575Z,40.47
2023-05-06T08:18:54.100Z,38.42
2023-05-06T08:21:20.527Z,39.47
2023-05-06T08:23:46.915Z,40.10
2023-05-06T08:26:13.354Z,39.97
2023-05-06T08:28:39.750Z,40.50
2023-05-06T08:31:06.228Z,40.67
2023-05-06T08:33:32.689Z,44.00
2023-05-06T08:35:59.210Z,40.65
2023-05-06T08:38:26.065Z,33.90
2023-05-06T08:40:54.323Z,37.00
2023-05-06T08:43:22.221Z,37.40
2023-05-06T08:45:49.548Z,36.97
2023-05-06T08:48:16.686Z,37.15
2023-05-06T08:50:43.599Z,36.50
2023-05-06T08:53:14.001Z,33.63
2023-05-06T08:55:42.151Z,32.00
2023-05-06T08:58:10.849Z,35.22
2023-05-06T09:00:37.832Z,36.03
2023-05-06T09:03:04.496Z,32.53
2023-05-06T09:05:31.284Z,35.83
2023-05-06T09:07:57.748Z,36.42
2023-05-06T09:10:24.339Z,35.53
2023-05-06T09:12:53.710Z,34.00
2023-05-06T09:15:24.511Z,28.83
2023-05-06T09:17:50.967Z,25.93
2023-05-06T09:20:17.562Z,27.42
2023-05-06T09:22:44.351Z,24.25
2023-05-06T09:25:11.950Z,26.67
2023-05-06T09:27:38.900Z,23.80
2023-05-06T09:30:06.928Z,22.50
2023-05-06T09:32:36.158Z,18.98
2023-05-06T09:35:04.249Z,17.45
2023-05-06T09:37:30.963Z,20.70
2023-05-06T09:40:00.585Z,17.08
2023-05-06T09:42:29.267Z,13.40
2023-05-06T09:45:02.249Z,14.63
2023-05-06T09:47:34.186Z,13.00
2023-05-06T09:50:01.938Z,13.02
2023-05-06T09:52:29.415Z,13.52
2023-05-06T09:54:56.720Z,17.77
2023-05-06T09:57:23.537Z,15.10
2023-05-06T09:59:53.200Z,16.08
2023-05-06T10:02:20.290Z,18.08
2023-05-06T10:04:49.082Z,18.55
2023-05-06T10:07:19.724Z,12.93
2023-05-06T10:09:48.638Z,6.97
2023-05-06T10:12:16.401Z,9.88
2023-05-06T10:14:42.918Z,11.05
2023-05-06T10:17:10.406Z,11.00
2023-05-06T10:19:39.885Z,11.03
2023-05-06T10:22:35.994Z,11.25
2023-05-06T10:25:14.579Z,13.70
2023-05-06T10:27:43.995Z,14.15
2023-05-06T10:30:13.925Z,15.23
2023-05-06T10:32:43.191Z,14.20
2023-05-06T10:35:44.509Z,14.88
2023-05-06T10:38:26.748Z,13.32
2023-05-06T10:40:54.650Z,15.00
2023-05-06T10:43:24.260Z,12.77
2023-05-06T10:46:14.083Z,9.33
2023-05-06T10:49:06.663Z,9.40
2023-05-06T10:51:36.929Z,10.13
2023-05-06T10:54:11.093Z,9.90
2023-05-06T10:57:02.961Z,12.23
2023-05-06T10:59:31.008Z,11.93
2023-05-06T11:02:09.115Z,11.65
2023-05-06T11:04:35.783Z,13.63
2023-05-06T11:07:12.821Z,11.30
2023-05-06T11:09:58.841Z,9.65
2023-05-06T11:12:44.996Z,11.83
2023-05-06T11:15:35.802Z,12.07
2023-05-06T11:18:24.894Z,11.02
2023-05-06T11:21:12.601Z,10.63
2023-05-06T11:23:42.413Z,8.82
2023-05-06T11:26:10.383Z,7.43
2023-05-06T11:28:36.992Z,6.90
2023-05-06T11:31:03.546Z,6.40
2023-05-06T11:33:35.254Z,5.32
2023-05-06T11:36:03.159Z,9.00
2023-05-06T11:38:49.396Z,8.90
2023-05-06T11:41:16.943Z,8.68
2023-05-06T11:43:47.544Z,7.45
2023-05-06T11:46:14.033Z,9.77
2023-05-06T11:48:40.468Z,12.13
2023-05-06T11:51:08.228Z,12.50
2023-05-06T11:53:34.913Z,11.70
2023-05-06T11:56:01.319Z,9.40
2023-05-06T11:58:29.153Z,10.45
2023-05-06T12:00:59.446Z,9.63
2023-05-06T12:03:27.784Z,10.67
2023-05-06T12:05:55.444Z,9.90
2023-05-06T12:08:27.944Z,10.45
2023-05-06T12:10:56.389Z,11.10
2023-05-06T12:13:22.994Z,10.45
2023-05-06T12:15:50.349Z,11.27
2023-05-06T12:18:17.286Z,10.45
2023-05-06T12:20:44.348Z,8.98
2023-05-06T12:23:12.368Z,8.98
2023-05-06T12:25:40.384Z,8.57
2023-05-06T12:28:22.747Z,9.83
2023-05-06T12:30:49.207Z,10.25
2023-05-06T12:33:15.639Z,10.63
2023-05-06T12:35:42.088Z,9.98
2023-05-06T12:38:14.024Z,7.80
2023-05-06T12:40:41.912Z,6.77
2023-05-06T12:43:09.537Z,9.05
2023-05-06T12:45:38.512Z,9.52
2023-05-06T12:48:06.806Z,9.68
2023-05-06T12:50:40.099Z,9.60
2023-05-06T12:53:09.203Z,10.40
2023-05-06T12:55:37.338Z,9.50
2023-05-06T12:58:04.091Z,11.13
2023-05-06T13:00:30.789Z,11.57
2023-05-06T13:02:57.309Z,12.18
2023-05-06T13:05:23.789Z,11.23
2023-05-06T13:07:51.460Z,14.75
2023-05-06T13:10:17.844Z,10.95
2023-05-06T13:12:44.287Z,10.45
2023-05-06T13:15:10.882Z,10.43
2023-05-06T13:17:37.382Z,11.17
2023-05-06T13:20:05.407Z,9.95
2023-05-06T13:22:40.360Z,11.73
2023-05-06T13:25:13.715Z,10.48
2023-05-06T13:27:40.269Z,12.25
2023-05-06T13:30:08.765Z,10.83
2023-05-06T13:32:35.801Z,11.00
2023-05-06T13:35:02.362Z,10.68
2023-05-06T13:37:28.756Z,9.15
2023-05-06T13:39:55.148Z,9.93
2023-05-06T13:42:21.551Z,8.13
2023-05-06T13:44:47.954Z,8.30
2023-05-06T13:47:14.904Z,8.60
2023-05-06T13:49:41.298Z,8.02
2023-05-06T13:52:08.303Z,8.25
2023-05-06T13:54:35.063Z,9.13
2023-05-06T13:57:01.459Z,8.27
2023-05-06T13:59:27.852Z,8.20
2023-05-06T14:01:55.928Z,7.82
2023-05-06T14:04:22.514Z,6.35
2023-05-06T14:06:48.944Z,6.43
2023-05-06T14:09:15.452Z,6.60
2023-05-06T14:11:42.043Z,9.32
2023-05-06T14:14:08.444Z,7.90
2023-05-06T14:16:34.910Z,8.23
2023-05-06T14:19:01.417Z,9.53
2023-05-06T14:21:27.810Z,9.40
2023-05-06T14:23:54.567Z,7.75
2023-05-06T14:26:21.056Z,9.30
2023-05-06T14:28:47.482Z,8.90
2023-05-06T14:31:13.949Z,8.30
2023-05-06T14:33:40.424Z,10.35
2023-05-06T14:36:07.118Z,8.02
2023-05-06T14:38:33.553Z,8.23
2023-05-06T14:40:59.956Z,8.95
2023-05-06T14:43:26.416Z,9.77
2023-05-06T14:45:53.048Z,11.23
2023-05-06T14:48:19.556Z,9.23
2023-05-06T14:50:46.125Z,8.10
2023-05-06T14:53:14.470Z,8.05
2023-05-06T14:55:41.451Z,9.57
2023-05-06T14:58:07.874Z,10.90
2023-05-06T15:00:34.417Z,9.43
2023-05-06T15:03:00.869Z,9.60
2023-05-06T15:05:27.339Z,10.10
2023-05-06T15:07:53.864Z,10.73
2023-05-06T15:10:20.412Z,10.85
2023-05-06T15:12:46.937Z,10.05
2023-05-06T15:15:13.605Z,10.02
2023-05-06T15:17:41.712Z,12.23
2023-05-06T15:20:08.816Z,9.07
2023-05-06T15:22:37.203Z,10.25
2023-05-06T15:25:06.095Z,9.43
2023-05-06T15:27:32.562Z,9.32
2023-05-06T15:30:04.069Z,11.90
2023-05-06T15:32:31.438Z,9.33
2023-05-06T15:34:58.015Z,10.43
2023-05-06T15:37:24.519Z,10.68
2023-05-06T15:39:51.003Z,10.75
2023-05-06T15:42:17.425Z,11.70
2023-05-06T15:44:43.944Z,9.50
2023-05-06T15:47:10.378Z,9.23
2023-05-06T15:49:51.991Z,11.10
2023-05-06T15:52:21.218Z,9.90
2023-05-06T15:54:50.025Z,9.90
2023-05-06T15:57:17.148Z,10.83
2023-05-06T15:59:43.559Z,9.05
2023-05-06T16:04:39.516Z,8.05
2023-05-06T16:07:06.099Z,9.05
2023-05-06T16:09:32.534Z,8.70
2023-05-06T16:11:59.015Z,7.22
2023-05-06T16:14:25.568Z,8.45
2023-05-06T16:16:52.636Z,8.85
2023-05-06T16:19:19.632Z,7.65
2023-05-06T16:21:46.099Z,7.13
2023-05-06T16:24:12.502Z,7.07
2023-05-06T16:26:38.997Z,9.23
2023-05-06T16:29:05.815Z,7.97
2023-05-06T16:31:33.232Z,8.10
2023-05-06T16:33:59.681Z,9.87
2023-05-06T16:36:28.608Z,9.93
2023-05-06T16:38:55.271Z,10.32
2023-05-06T16:41:21.767Z,9.50
2023-05-06T16:43:48.330Z,9.45
2023-05-06T16:46:14.791Z,9.23
2023-05-06T16:48:41.335Z,8.43
2023-05-06T16:51:07.891Z,8.85
2023-05-06T16:53:34.350Z,9.15
2023-05-06T16:56:03.009Z,9.65
2023-05-06T16:58:30.004Z,10.57
2023-05-06T17:00:56.464Z,9.40
2023-05-06T17:03:23.121Z,16.60
2023-05-06T17:05:49.559Z,12.52
2023-05-06T17:08:16.323Z,13.05
2023-05-06T17:10:43.414Z,12.20
2023-05-06T17:13:10.006Z,11.10
2023-05-06T17:15:36.469Z,12.73
2023-05-06T17:18:03.645Z,12.40
2023-05-06T17:20:30.370Z,11.50
2023-05-06T17:22:57.714Z,12.57
2023-05-06T17:25:24.330Z,12.80
2023-05-06T17:27:51.021Z,9.05
2023-05-06T17:30:17.487Z,11.00
2023-05-06T17:32:43.990Z,8.77
2023-05-06T17:35:10.738Z,9.50
2023-05-06T17:37:37.333Z,15.38
2023-05-06T17:40:05.998Z,11.32
2023-05-06T17:42:33.974Z,16.05
2023-05-06T17:45:00.457Z,14.75
2023-05-06T17:47:29.963Z,13.27
2023-05-06T17:49:56.812Z,18.17
2023-05-06T17:52:26.046Z,16.75
2023-05-06T17:55:06.260Z,11.07
2023-05-06T17:57:38.122Z,13.77
2023-05-06T18:00:05.543Z,12.37
2023-05-06T18:02:32.126Z,12.77
2023-05-06T18:04:58.598Z,16.23
2023-05-06T18:07:24.991Z,18.67
2023-05-06T18:09:52.294Z,18.10
2023-05-06T18:12:19.441Z,16.83
2023-05-06T18:14:46.359Z,17.00
2023-05-06T18:17:12.774Z,15.75
2023-05-06T18:19:39.371Z,17.13
2023-05-06T18:22:05.853Z,17.27
2023-05-06T18:24:32.268Z,18.80
2023-05-06T18:26:58.791Z,18.60
2023-05-06T18:29:25.290Z,19.40
2023-05-06T18:31:51.742Z,19.20
2023-05-06T18:34:18.196Z,19.83
2023-05-06T18:36:44.675Z,20.87
2023-05-06T18:39:11.109Z,23.13
2023-05-06T18:41:37.498Z,22.65
2023-05-06T18:44:04.586Z,25.95
2023-05-06T18:46:31.198Z,25.40
2023-05-06T18:48:57.979Z,22.03
2023-05-06T18:51:24.557Z,21.83
2023-05-06T18:53:51.006Z,23.90
2023-05-06T18:56:17.431Z,23.88
2023-05-06T18:58:43.831Z,25.10
2023-05-06T19:01:10.880Z,24.37
2023-05-06T19:03:38.200Z,25.15
2023-05-06T19:06:08.059Z,22.42
2023-05-06T19:08:35.300Z,24.55
2023-05-06T19:11:02.401Z,24.27
2023-05-06T19:13:28.931Z,24.77
2023-05-06T19:15:56.994Z,25.52
2023-05-06T19:18:23.621Z,24.45
2023-05-06T19:20:50.107Z,24.60
2023-05-06T19:23:16.516Z,27.38
2023-05-06T19:25:42.925Z,26.70
2023-05-06T19:28:09.627Z,28.40
2023-05-06T19:30:36.395Z,24.90
2023-05-06T19:33:03.813Z,26.42
2023-05-06T19:35:30.568Z,28.83
2023-05-06T19:37:58.113Z,29.60
2023-05-06T19:40:24.786Z,26.88
2023-05-06T19:42:51.549Z,26.38
2023-05-06T19:45:19.065Z,27.42
2023-05-06T19:47:46.159Z,29.88
2023-05-06T19:50:13.008Z,27.83
2023-05-06T19:52:40.101Z,31.38
2023-05-06T19:55:07.289Z,32.25
2023-05-06T19:57:33.929Z,30.25
2023-05-06T20:00:05.148Z,31.63
2023-05-06T20:02:32.899Z,33.57
2023-05-06T20:05:00.492Z,30.50
2023-05-06T20:07:27.276Z,32.45
2023-05-06T20:09:55.498Z,33.15
2023-05-06T20:12:23.030Z,28.40
2023-05-06T20:14:49.736Z,32.23
2023-05-06T20:17:16.688Z,34.17
2023-05-06T20:19:43.228Z,32.63
2023-05-06T20:22:09.642Z,34.85
2023-05-06T20:24:37.407Z,34.50
2023-05-06T20:27:03.819Z,34.50
2023-05-06T20:29:30.830Z,34.67
2023-05-06T20:31:57.481Z,34.92
2023-05-06T20:34:24.018Z,33.50
2023-05-06T20:36:50.532Z,33.35
2023-05-06T20:39:16.988Z,33.73
2023-05-06T20:41:43.372Z,34.13
2023-05-06T20:44:09.785Z,33.78
2023-05-06T20:46:36.289Z,34.67
2023-05-06T20:49:02.732Z,34.25
2023-05-06T20:51:29.251Z,34.90
2023-05-06T20:53:56.495Z,34.55
2023-05-06T20:56:24.919Z,34.00
2023-05-06T20:58:52.480Z,36.60
2023-05-06T21:01:20.501Z,35.55
2023-05-06T21:03:47.204Z,35.17
2023-05-06T21:06:18.320Z,37.08
2023-05-06T21:08:46.730Z,33.72
2023-05-06T21:11:13.505Z,35.40
2023-05-06T21:13:40.852Z,33.67
2023-05-06T21:16:07.465Z,35.03
2023-05-06T21:18:33.921Z,36.20
2023-05-06T21:21:00.605Z,33.80
2023-05-06T21:23:27.196Z,34.40
2023-05-06T21:25:53.637Z,36.35
2023-05-06T21:28:20.109Z,37.33
2023-05-06T21:30:46.709Z,36.33
2023-05-06T21:33:13.136Z,38.47
2023-05-06T21:35:39.521Z,35.38
2023-05-06T21:38:05.911Z,34.95
2023-05-06T21:40:32.371Z,36.60
2023-05-06T21:42:58.859Z,36.50
2023-05-06T21:45:25.376Z,37.13
2023-05-06T21:47:51.884Z,33.85
2023-05-06T21:50:18.328Z,38.47
2023-05-06T21:52:44.712Z,36.53
2023-05-06T21:55:11.510Z,36.42
2023-05-06T21:57:38.776Z,37.95
2023-05-06T22:00:11.783Z,35.50
2023-05-06T22:02:39.904Z,34.00
2023-05-06T22:05:08.160Z,34.47
2023-05-06T22:07:35.806Z,34.42
2023-05-06T22:10:02.440Z,34.65
2023-05-06T22:12:28.918Z,36.50
2023-05-06T22:14:55.624Z,37.92
2023-05-06T22:17:22.254Z,36.90
2023-05-06T22:19:49.079Z,36.78
2023-05-06T22:22:16.422Z,37.20
2023-05-06T22:24:42.888Z,37.45
2023-05-06T22:27:09.344Z,38.05
2023-05-06T22:29:35.994Z,35.40
2023-05-06T22:32:03.026Z,34.65
2023-05-06T22:34:29.508Z,35.33
2023-05-06T22:36:57.608Z,32.38
2023-05-06T22:39:24.807Z,37.60
2023-05-06T22:41:52.649Z,30.40
2023-05-06T22:44:19.047Z,30.10
2023-05-06T22:46:45.587Z,32.15
2023-05-06T22:49:11.999Z,35.05
2023-05-06T22:51:38.513Z,31.35
2023-05-06T22:54:05.020Z,34.03
2023-05-06T22:56:31.481Z,33.67
2023-05-06T22:58:57.872Z,32.28
2023-05-06T23:01:26.178Z,32.53
2023-05-06T23:03:52.888Z,36.20
2023-05-06T23:06:19.299Z,34.47
2023-05-06T23:08:45.732Z,32.25
2023-05-06T23:11:12.155Z,30.38
2023-05-06T23:13:38.542Z,33.47
2023-05-06T23:16:05.387Z,34.33
2023-05-06T23:18:31.884Z,32.40
2023-05-06T23:20:58.281Z,33.95
2023-05-06T23:23:24.711Z,33.45
2023-05-06T23:25:51.517Z,30.50
2023-05-06T23:28:17.973Z,32.50
2023-05-06T23:30:44.444Z,33.10
2023-05-06T23:33:10.925Z,35.40
2023-05-06T23:35:37.650Z,36.33
2023-05-06T23:38:04.061Z,33.65
2023-05-06T23:40:30.504Z,34.55
2023-05-06T23:42:56.968Z,36.47
2023-05-06T23:45:25.656Z,32.15
2023-05-06T23:47:53.264Z,33.08
2023-05-06T23:50:20.330Z,38.20
2023-05-06T23:52:46.832Z,33.40
2023-05-06T23:55:13.573Z,32.83
2023-05-06T23:57:40.148Z,32.65
